Time;durP1;ratioP1;P1;durP2;ratioP2;P2;SDS_P1;SDS_P2;PMS_P1;PMS_P2;Temp;Humidity;BMP_temperature;BMP_pressure;BME280_temperature;BME280_humidity;BME280_pressure;Samples;Min_cycle;Max_cycle;Signal;HPM_P1;HPM_P2
2021/06/17 00:00:52;;;;;;;4.70;2.47;;;;;;;18.77;72.35;94909.78;2970957;39;20510;-81
2021/06/17 00:02:56;;;;;;;4.18;2.95;;;;;;;18.76;72.31;94908.97;2977137;39;20136;-80
2021/06/17 00:04:57;;;;;;;2.95;2.35;;;;;;;18.74;72.77;94904.91;2975861;39;20421;-80
2021/06/17 00:07:00;;;;;;;4.25;2.60;;;;;;;18.75;72.24;94907.31;2971067;39;20116;-80
2021/06/17 00:09:03;;;;;;;4.18;2.50;;;;;;;18.71;72.31;94906.09;2969751;39;20067;-72
2021/06/17 00:11:04;;;;;;;4.20;2.50;;;;;;;18.67;72.15;94902.25;2968830;39;20490;-70
2021/06/17 00:13:12;;;;;;;3.55;2.40;;;;;;;18.67;72.21;94912.03;2967126;40;20088;-72
2021/06/17 00:15:14;;;;;;;3.78;2.67;;;;;;;18.65;72.36;94903.44;2974225;39;20079;-72
2021/06/17 00:17:18;;;;;;;3.22;2.30;;;;;;;18.61;72.61;94903.88;2976604;40;20286;-72
2021/06/17 00:19:20;;;;;;;;;;;;;;;18.59;72.37;94899.78;2975184;39;20083;-70
2021/06/17 00:21:21;;;;;;;3.28;2.53;;;;;;;18.54;72.89;94896.91;2975221;40;19943;-73
2021/06/17 00:23:24;;;;;;;3.50;2.30;;;;;;;18.53;72.66;94903.25;2976235;39;20105;-72
2021/06/17 00:25:27;;;;;;;3.88;2.47;;;;;;;18.51;72.70;94908.75;2966440;40;20048;-71
2021/06/17 00:27:28;;;;;;;3.78;2.17;;;;;;;18.48;72.84;94905.72;2976401;39;20051;-71
2021/06/17 00:29:30;;;;;;;3.35;2.53;;;;;;;18.47;72.64;94904.88;2975865;39;20139;-73
2021/06/17 00:31:32;;;;;;;3.00;2.22;;;;;;;18.49;72.78;94900.19;2973504;39;20660;-72
2021/06/17 00:33:34;;;;;;;3.88;2.47;;;;;;;18.49;72.55;94900.19;2975981;40;20048;-72
2021/06/17 00:35:36;;;;;;;3.92;2.40;;;;;;;18.48;72.65;94887.94;2973407;39;20056;-71
2021/06/17 00:37:38;;;;;;;5.53;2.50;;;;;;;18.48;72.42;94895.09;2972361;39;20083;-71
2021/06/17 00:39:41;;;;;;;2.83;2.28;;;;;;;18.48;72.40;94895.91;2972116;39;20107;-70
2021/06/17 00:41:43;;;;;;;3.72;2.13;;;;;;;18.50;72.39;94893.88;2974991;39;20059;-74
2021/06/17 00:43:45;;;;;;;5.50;2.40;;;;;;;18.52;72.38;94885.69;2979733;39;20067;-72
2021/06/17 00:45:47;;;;;;;3.20;2.58;;;;;;;18.51;72.08;94887.53;2969711;39;20188;-72
2021/06/17 00:47:49;;;;;;;3.45;2.42;;;;;;;18.48;72.08;94887.94;2972344;39;20197;-71
2021/06/17 00:49:51;;;;;;;2.85;2.30;;;;;;;18.42;72.25;94889.56;2972258;39;20058;-74
2021/06/17 00:51:53;;;;;;;4.25;2.65;;;;;;;18.38;72.34;94884.88;2973369;39;20116;-72
2021/06/17 00:53:55;;;;;;;4.43;2.83;;;;;;;18.39;72.25;94884.69;2971780;39;20144;-73
2021/06/17 00:55:57;;;;;;;3.83;2.70;;;;;;;18.38;72.46;94876.91;2974060;40;20132;-82
2021/06/17 00:57:59;;;;;;;4.07;2.72;;;;;;;18.38;72.44;94877.72;2971170;39;20429;-83
2021/06/17 01:00:01;;;;;;;4.95;3.17;;;;;;;18.37;72.50;94881.41;2975933;39;20132;-81
2021/06/17 01:02:03;;;;;;;5.35;2.85;;;;;;;18.36;72.68;94876.31;2965940;40;20072;-82
2021/06/17 01:04:05;;;;;;;4.38;3.33;;;;;;;18.33;72.82;94869.56;2970510;39;20053;-81
2021/06/17 01:06:07;;;;;;;6.82;3.05;;;;;;;18.29;72.73;94871.00;2973033;39;20056;-82
2021/06/17 01:08:12;;;;;;;3.88;3.40;;;;;;;18.30;72.52;94874.44;2973284;39;20136;-81
2021/06/17 01:10:25;;;;;;;3.95;3.17;;;;;;;18.24;72.48;94857.53;2974565;39;20044;-82
2021/06/17 01:12:46;;;;;;;5.22;3.42;;;;;;;18.25;72.28;94859.16;2975386;40;20426;-82
2021/06/17 01:15:18;;;;;;;3.90;3.30;;;;;;;18.18;72.29;94866.28;2976828;39;20078;-82
2021/06/17 01:17:22;;;;;;;3.78;2.90;;;;;;;18.10;72.07;94866.47;2971380;39;20075;-82
2021/06/17 01:19:30;;;;;;;4.45;3.28;;;;;;;18.05;72.09;94866.25;2975189;39;20108;-84
2021/06/17 01:21:59;;;;;;;7.35;3.20;;;;;;;18.05;72.12;94860.94;2967595;39;20356;-81
2021/06/17 01:24:38;;;;;;;6.97;3.08;;;;;;;18.00;72.01;94858.91;2974164;39;20156;-81
2021/06/17 01:26:43;;;;;;;5.82;3.30;;;;;;;18.03;71.66;94863.81;2970976;40;20405;-79
2021/06/17 01:28:45;;;;;;;4.00;3.17;;;;;;;18.01;71.59;94860.56;2974008;39;20392;-81
2021/06/17 01:31:03;;;;;;;3.90;2.85;;;;;;;17.96;71.76;94858.50;2971296;39;20077;-81
2021/06/17 01:33:05;;;;;;;4.82;3.25;;;;;;;17.92;71.65;94854.63;2971918;40;20044;-81
2021/06/17 01:35:09;;;;;;;3.83;3.00;;;;;;;17.92;71.57;94861.75;2976060;39;20115;-81
2021/06/17 01:37:13;;;;;;;3.88;3.03;;;;;;;17.94;71.30;94859.69;2974856;39;20052;-82
2021/06/17 01:39:17;;;;;;;8.13;3.20;;;;;;;17.94;71.29;94859.69;2969795;39;20064;-80
2021/06/17 01:41:25;;;;;;;4.07;3.17;;;;;;;17.90;71.53;94872.56;2975288;40;20063;-81
2021/06/17 01:43:27;;;;;;;8.02;3.30;;;;;;;17.87;71.54;94869.47;2974039;40;20052;-80
2021/06/17 01:45:30;;;;;;;4.35;3.08;;;;;;;17.87;71.03;94866.84;2974077;40;20071;-79
2021/06/17 01:47:31;;;;;;;4.72;3.20;;;;;;;17.85;71.48;94860.91;2972689;39;20125;-80
2021/06/17 01:49:37;;;;;;;4.72;3.30;;;;;;;17.85;71.29;94867.03;2975975;39;20106;-81
2021/06/17 01:51:39;;;;;;;5.15;3.47;;;;;;;17.86;71.43;94860.72;2976109;39;20091;-80
2021/06/17 01:53:41;;;;;;;6.05;3.20;;;;;;;17.81;71.66;94860.47;2975584;39;20077;-80
2021/06/17 01:55:43;;;;;;;4.55;3.08;;;;;;;17.80;71.75;94854.34;2975892;39;20536;-81
2021/06/17 01:57:46;;;;;;;5.68;3.90;;;;;;;17.78;71.84;94855.56;2974270;39;20088;-80
2021/06/17 01:59:50;;;;;;;3.88;3.47;;;;;;;17.75;71.80;94854.13;2975128;39;20064;-79
2021/06/17 02:01:55;;;;;;;3.60;2.95;;;;;;;17.72;71.98;94857.16;2961786;40;20063;-80
2021/06/17 02:03:58;;;;;;;4.03;3.20;;;;;;;17.68;71.77;94852.47;2967945;39;20061;-80
2021/06/17 02:06:00;;;;;;;4.47;3.63;;;;;;;17.66;71.42;94854.50;2974561;39;20451;-79
2021/06/17 02:08:04;;;;;;;4.35;3.00;;;;;;;17.67;71.58;94853.50;2972055;39;20052;-80
2021/06/17 02:10:06;;;;;;;3.72;3.08;;;;;;;17.66;71.32;94849.19;2971882;39;20083;-81
2021/06/17 02:12:09;;;;;;;4.50;3.60;;;;;;;17.66;71.07;94857.16;2975167;40;20629;-78
2021/06/17 02:14:11;;;;;;;4.32;3.28;;;;;;;17.65;70.85;94853.69;2974881;39;20429;-81
2021/06/17 02:16:14;;;;;;;5.35;3.55;;;;;;;17.64;70.91;94846.78;2966441;40;20390;-81
2021/06/17 02:18:23;;;;;;;9.70;4.10;;;;;;;17.52;71.34;94851.81;2966989;40;20082;-70
2021/06/17 02:20:25;;;;;;;7.45;3.88;;;;;;;17.39;71.82;94859.72;2973075;39;20060;-71
2021/06/17 02:22:28;;;;;;;4.68;3.42;;;;;;;17.11;72.23;94859.78;2968943;39;20425;-70
2021/06/17 02:24:31;;;;;;;5.72;3.53;;;;;;;16.56;74.14;94870.16;2973408;39;20052;-69
2021/06/17 02:26:33;;;;;;;4.55;3.05;;;;;;;16.34;75.26;94862.25;2967904;40;20096;-70
2021/06/17 02:28:41;;;;;;;7.90;3.72;;;;;;;16.32;75.27;94861.63;2974843;39;20096;-70
2021/06/17 02:30:43;;;;;;;5.63;3.22;;;;;;;16.30;75.53;94862.84;2969861;39;20140;-70
2021/06/17 02:32:49;;;;;;;7.93;3.65;;;;;;;16.33;75.36;94863.28;2974662;39;20056;-70
2021/06/17 02:34:51;;;;;;;8.63;3.83;;;;;;;16.34;75.03;94861.44;2974817;39;20368;-70
2021/06/17 02:36:53;;;;;;;3.92;3.22;;;;;;;16.32;75.18;94858.97;2965552;40;20140;-70
2021/06/17 02:38:57;;;;;;;4.55;3.55;;;;;;;16.41;75.00;94854.38;2974304;40;20096;-70
2021/06/17 02:41:01;;;;;;;4.35;3.58;;;;;;;16.56;74.58;94857.78;2974031;39;20044;-69
2021/06/17 02:43:07;;;;;;;6.32;3.70;;;;;;;16.72;74.11;94855.84;2975177;39;20071;-70
2021/06/17 02:45:10;;;;;;;6.63;4.07;;;;;;;16.82;73.77;94851.06;2964277;40;20093;-69
2021/06/17 02:47:13;;;;;;;5.10;4.18;;;;;;;16.94;73.32;94862.72;2965777;40;20387;-69
2021/06/17 02:49:15;;;;;;;5.05;3.75;;;;;;;17.03;73.00;94860.75;2972792;39;20151;-70
2021/06/17 02:51:16;;;;;;;6.50;3.95;;;;;;;17.10;72.73;94858.97;2971741;40;20091;-71
2021/06/17 02:53:18;;;;;;;4.93;3.70;;;;;;;17.14;72.35;94862.88;2975504;39;20055;-70
2021/06/17 02:55:20;;;;;;;4.72;3.55;;;;;;;17.19;71.92;94854.34;2973627;40;20060;-69
2021/06/17 02:57:53;;;;;;;5.32;3.22;;;;;;;17.25;71.98;94858.84;2973365;39;20437;-70
2021/06/17 03:00:15;;;;;;;6.50;3.58;;;;;;;17.29;71.26;94853.94;2971207;39;20048;-70
2021/06/17 03:02:55;;;;;;;5.63;3.67;;;;;;;17.30;71.15;94847.66;2968198;39;20089;-71
2021/06/17 03:05:07;;;;;;;5.47;3.42;;;;;;;17.35;70.95;94861.13;2970277;40;20305;-70
2021/06/17 03:07:17;;;;;;;7.47;3.22;;;;;;;17.40;71.17;94856.03;2967410;39;20067;-71
2021/06/17 03:09:22;;;;;;;5.20;3.60;;;;;;;17.47;70.98;94858.75;2974191;39;20082;-80
2021/06/17 03:11:31;;;;;;;5.38;4.25;;;;;;;17.47;71.06;94861.38;2977046;39;20067;-79
2021/06/17 03:13:34;;;;;;;4.95;3.45;;;;;;;17.49;71.19;94854.88;2979402;39;20066;-77
2021/06/17 03:15:40;;;;;;;7.90;3.80;;;;;;;17.51;71.45;94866.09;2966868;39;20064;-81
2021/06/17 03:17:49;;;;;;;7.85;3.90;;;;;;;17.56;71.31;94868.94;2974100;39;20216;-79
2021/06/17 03:19:54;;;;;;;5.38;4.35;;;;;;;17.60;71.28;94866.72;2975803;39;20064;-80
2021/06/17 03:22:00;;;;;;;6.07;3.90;;;;;;;17.64;71.08;94865.31;2976072;40;20116;-80
2021/06/17 03:24:03;;;;;;;9.60;4.90;;;;;;;17.68;70.98;94873.66;2967951;40;20373;-80
2021/06/17 03:26:07;;;;;;;5.97;4.53;;;;;;;17.69;71.00;94870.03;2960374;40;20071;-81
2021/06/17 03:28:13;;;;;;;5.93;4.22;;;;;;;17.72;71.24;94877.56;2970336;40;20134;-81
2021/06/17 03:30:18;;;;;;;5.55;4.32;;;;;;;17.74;71.01;94872.88;2976430;39;20195;-80
2021/06/17 03:32:21;;;;;;;5.80;4.32;;;;;;;17.74;71.22;94875.53;2977231;39;20084;-80
2021/06/17 03:34:24;;;;;;;5.45;4.50;;;;;;;17.71;71.40;94865.34;2967848;40;20156;-81
2021/06/17 03:36:26;;;;;;;8.50;5.10;;;;;;;17.73;71.34;94876.56;2975543;39;20051;-80
2021/06/17 03:38:28;;;;;;;4.90;4.35;;;;;;;17.77;71.46;94872.50;2969284;40;20063;-80
2021/06/17 03:40:31;;;;;;;6.20;4.50;;;;;;;17.80;71.15;94880.03;2978583;39;20151;-80
2021/06/17 03:42:33;;;;;;;5.63;3.90;;;;;;;17.82;71.05;94885.97;2975636;39;20108;-80
2021/06/17 03:44:36;;;;;;;7.45;4.50;;;;;;;17.86;70.94;94889.88;2973806;39;20056;-79
2021/06/17 03:46:38;;;;;;;6.47;4.60;;;;;;;17.94;70.64;94891.50;2970635;39;20492;-81
2021/06/17 03:48:41;;;;;;;5.22;4.13;;;;;;;17.96;70.87;94892.97;2973114;39;20067;-81
2021/06/17 03:50:44;;;;;;;5.03;4.22;;;;;;;17.97;70.80;94897.22;2973208;39;20068;-83
2021/06/17 03:52:47;;;;;;;7.93;4.25;;;;;;;18.03;70.68;94902.78;2976362;39;20099;-81
2021/06/17 03:54:49;;;;;;;7.30;5.07;;;;;;;18.04;70.68;94905.19;2975411;39;20055;-82
2021/06/17 03:56:54;;;;;;;5.80;4.60;;;;;;;18.06;70.70;94895.22;2973417;39;20577;-69
2021/06/17 03:58:56;;;;;;;6.57;5.00;;;;;;;18.10;70.48;94898.28;2966547;40;20060;-72
2021/06/17 04:00:58;;;;;;;6.22;5.07;;;;;;;18.12;70.36;94896.25;2974122;39;20113;-70
2021/06/17 04:03:03;;;;;;;7.57;4.38;;;;;;;18.10;70.44;94901.75;2976252;40;20048;-71
2021/06/17 04:05:07;;;;;;;8.07;4.78;;;;;;;18.11;70.41;94898.09;2965235;40;20049;-71
2021/06/17 04:07:13;;;;;;;5.82;4.90;;;;;;;18.11;70.56;94907.88;2975418;39;20057;-72
2021/06/17 04:09:25;;;;;;;6.70;5.30;;;;;;;18.13;70.62;94904.03;2973886;39;20062;-70
2021/06/17 04:11:27;;;;;;;7.70;5.30;;;;;;;18.13;70.74;94906.69;2975332;39;20429;-71
2021/06/17 04:13:34;;;;;;;6.43;4.60;;;;;;;18.15;70.79;94909.09;2974878;39;20047;-70
2021/06/17 04:15:36;;;;;;;9.35;5.60;;;;;;;18.17;70.28;94905.22;2974407;40;20048;-71
2021/06/17 04:17:41;;;;;;;7.95;5.35;;;;;;;18.20;70.16;94909.34;2973970;40;20052;-70
2021/06/17 04:19:43;;;;;;;6.53;5.28;;;;;;;18.27;70.41;94912.00;2973348;39;20450;-69
2021/06/17 04:21:45;;;;;;;7.60;5.60;;;;;;;18.19;70.01;94910.34;2969670;40;20160;-71
2021/06/17 04:23:52;;;;;;;6.57;5.20;;;;;;;17.89;70.81;94915.97;2975479;39;20144;-70
2021/06/17 04:25:56;;;;;;;8.75;5.78;;;;;;;17.64;71.88;94905.06;2969287;39;20067;-70
2021/06/17 04:28:02;;;;;;;9.55;6.75;;;;;;;17.30;74.59;94917.31;2958500;40;20405;-69
2021/06/17 04:30:05;;;;;;;10.95;7.53;;;;;;;17.19;75.60;94926.63;2969546;39;20064;-70
2021/06/17 04:32:08;;;;;;;12.37;8.77;;;;;;;16.94;76.72;94934.19;2971993;39;20064;-70
2021/06/17 04:34:11;;;;;;;17.35;8.95;;;;;;;16.88;77.06;94931.47;2969598;39;20373;-69
2021/06/17 04:36:13;;;;;;;13.10;8.43;;;;;;;16.89;76.92;94920.72;2966455;39;20404;-71
2021/06/17 04:38:17;;;;;;;16.05;9.48;;;;;;;16.80;77.37;94927.16;2967518;39;20144;-71
2021/06/17 04:40:21;;;;;;;17.45;11.35;;;;;;;16.74;78.67;94926.06;2974019;39;20081;-82
2021/06/17 04:42:23;;;;;;;14.90;9.70;;;;;;;16.82;78.45;94930.44;2974526;39;20054;-81
2021/06/17 04:44:25;;;;;;;17.83;10.93;;;;;;;16.99;77.93;94930.94;2973176;40;20059;-80
2021/06/17 04:46:28;;;;;;;16.60;10.50;;;;;;;17.14;77.64;94925.56;2974467;40;20381;-81
2021/06/17 04:48:34;;;;;;;15.68;9.60;;;;;;;17.23;76.83;94931.50;2974262;39;20052;-82
2021/06/17 04:50:37;;;;;;;13.50;9.50;;;;;;;17.24;76.69;94933.16;2974084;39;20055;-81
2021/06/17 04:53:04;;;;;;;16.73;10.82;;;;;;;17.28;76.71;94929.94;2975353;39;20059;-82
2021/06/17 04:55:07;;;;;;;17.13;10.20;;;;;;;17.22;76.98;94932.53;2967621;40;20059;-81
2021/06/17 04:57:09;;;;;;;16.08;10.70;;;;;;;17.29;76.63;94936.84;2978566;39;20126;-80
2021/06/17 04:59:11;;;;;;;15.25;9.88;;;;;;;17.18;76.85;94930.25;2968555;39;20056;-82
2021/06/17 05:01:12;;;;;;;15.93;10.85;;;;;;;17.06;77.68;94928.38;2975911;40;20056;-80
2021/06/17 05:03:15;;;;;;;16.88;10.45;;;;;;;17.04;77.57;94939.16;2976677;39;20055;-81
2021/06/17 05:05:17;;;;;;;16.02;10.63;;;;;;;17.16;77.62;94942.06;2977182;39;20132;-82
2021/06/17 05:11:41;;;;;;;14.57;9.90;;;;;;;17.72;75.84;94931.34;2977685;39;20105;-81
2021/06/17 05:13:43;;;;;;;17.30;11.07;;;;;;;17.85;74.95;94935.13;2978022;39;20148;-84
2021/06/17 05:15:45;;;;;;;14.52;10.57;;;;;;;17.80;74.47;94935.69;2977158;39;20054;-82
2021/06/17 05:17:47;;;;;;;14.02;9.38;;;;;;;17.73;74.13;94930.34;2968947;39;20056;-83
2021/06/17 05:19:49;;;;;;;14.93;9.55;;;;;;;17.54;74.70;94939.84;2976603;39;20092;-82
2021/06/17 05:21:51;;;;;;;16.05;9.23;;;;;;;17.74;74.68;94936.47;2972249;40;20048;-81
2021/06/17 05:23:52;;;;;;;16.65;9.95;;;;;;;17.91;74.37;94942.28;2968522;40;20351;-81
2021/06/17 05:25:56;;;;;;;16.33;10.40;;;;;;;17.99;74.11;94936.81;2967338;39;20140;-81
2021/06/17 05:27:58;;;;;;;16.50;11.43;;;;;;;18.13;73.82;94938.50;2966048;40;20061;-83
2021/06/17 05:29:59;;;;;;;16.42;10.82;;;;;;;18.33;73.06;94940.38;2967909;40;20080;-80
2021/06/17 05:32:01;;;;;;;16.80;10.45;;;;;;;18.46;72.88;94952.84;2971688;39;20060;-83
2021/06/17 05:34:03;;;;;;;15.48;10.07;;;;;;;18.41;72.16;94954.25;2972115;39;20149;-81
2021/06/17 05:36:05;;;;;;;14.32;9.43;;;;;;;18.51;72.50;94950.38;2968468;39;20064;-83
2021/06/17 05:38:07;;;;;;;15.60;9.45;;;;;;;18.57;72.35;94958.34;2975254;39;20376;-81
2021/06/17 05:40:09;;;;;;;13.45;8.60;;;;;;;18.49;72.01;94960.38;2970744;39;20256;-80
2021/06/17 05:42:11;;;;;;;13.00;8.27;;;;;;;18.43;72.09;94967.28;2976801;39;20148;-82
2021/06/17 05:44:12;;;;;;;11.52;7.75;;;;;;;18.34;72.10;94969.31;2973180;39;20075;-82
2021/06/17 05:46:14;;;;;;;12.25;8.85;;;;;;;18.52;71.82;94973.22;2971296;39;20064;-82
2021/06/17 05:48:16;;;;;;;11.75;8.07;;;;;;;18.65;70.86;94973.28;2975616;40;20131;-82
2021/06/17 05:50:18;;;;;;;10.27;7.28;;;;;;;18.70;70.32;94972.66;2977010;39;20112;-82
2021/06/17 05:52:19;;;;;;;11.73;8.73;;;;;;;18.77;70.59;94971.63;2976130;39;20108;-70
2021/06/17 05:54:21;;;;;;;11.63;8.25;;;;;;;18.87;70.24;94965.16;2975381;39;20401;-71
2021/06/17 05:56:23;;;;;;;13.13;8.05;;;;;;;18.94;69.86;94966.78;2974423;39;20091;-70
2021/06/17 05:58:25;;;;;;;11.18;8.48;;;;;;;19.01;69.93;94975.56;2975397;39;20048;-69
2021/06/17 06:00:26;;;;;;;12.35;8.43;;;;;;;19.09;69.53;94973.72;2965011;40;20126;-70
2021/06/17 06:02:28;;;;;;;13.18;9.00;;;;;;;19.11;69.72;94969.84;2969875;39;20445;-70
2021/06/17 06:04:30;;;;;;;12.63;8.68;;;;;;;19.03;70.45;94972.69;2974371;39;20220;-72
2021/06/17 06:06:32;;;;;;;13.18;9.35;;;;;;;18.99;70.59;94979.44;2972936;39;20051;-71
2021/06/17 06:08:33;;;;;;;13.85;9.10;;;;;;;18.90;71.42;94972.69;2974073;39;20078;-73
2021/06/17 06:10:35;;;;;;;12.85;8.40;;;;;;;19.05;70.96;94968.00;2975039;39;20047;-71
2021/06/17 06:12:37;;;;;;;16.92;9.70;;;;;;;19.26;70.36;94969.63;2968281;39;20076;-71
2021/06/17 06:14:39;;;;;;;14.98;10.50;;;;;;;19.39;69.67;94972.25;2975574;39;20084;-71
2021/06/17 06:16:41;;;;;;;14.32;9.70;;;;;;;19.51;69.52;94963.63;2974400;39;20052;-72
2021/06/17 06:18:42;;;;;;;13.07;9.57;;;;;;;19.68;69.03;94969.31;2975337;39;20438;-71
2021/06/17 06:20:46;;;;;;;17.75;10.55;;;;;;;19.82;68.76;94968.31;2974717;39;20113;-72
2021/06/17 06:22:48;;;;;;;13.93;8.95;;;;;;;19.94;68.43;94974.59;2966453;39;20056;-71
2021/06/17 06:24:50;;;;;;;15.93;9.80;;;;;;;20.01;68.52;94966.59;2966909;39;20063;-71
2021/06/17 06:26:57;;;;;;;14.57;9.10;;;;;;;20.10;67.83;94965.31;2967463;40;20044;-72
2021/06/17 06:28:59;;;;;;;13.90;9.23;;;;;;;20.26;67.20;94966.66;2969402;40;20060;-72
2021/06/17 06:31:00;;;;;;;15.38;9.98;;;;;;;20.27;66.88;94963.00;2974222;39;20179;-72
2021/06/17 06:33:02;;;;;;;15.95;9.57;;;;;;;20.36;66.44;94969.69;2974476;39;20055;-72
2021/06/17 06:35:06;;;;;;;12.35;9.60;;;;;;;20.31;66.80;94971.38;2967730;39;20192;-72
2021/06/17 06:37:08;;;;;;;11.55;9.80;;;;;;;20.30;66.66;94973.19;2965937;40;20053;-72
2021/06/17 06:39:11;;;;;;;12.95;9.43;;;;;;;20.18;66.71;94972.25;2969195;39;20064;-71
2021/06/17 06:41:13;;;;;;;14.30;9.23;;;;;;;20.13;66.50;94964.88;2973434;40;20448;-71
2021/06/17 06:43:16;;;;;;;13.13;9.05;;;;;;;20.05;66.99;94973.13;2974214;39;20375;-70
2021/06/17 06:45:18;;;;;;;13.23;9.13;;;;;;;19.96;67.40;94969.91;2968217;39;20092;-73
2021/06/17 06:47:20;;;;;;;15.20;8.38;;;;;;;20.00;66.75;94964.94;2972168;39;20047;-71
2021/06/17 06:49:22;;;;;;;11.70;8.43;;;;;;;20.23;66.45;94967.09;2975495;39;20055;-72
2021/06/17 06:51:23;;;;;;;12.23;9.43;;;;;;;20.42;65.33;94963.53;2974364;39;20076;-69
2021/06/17 06:53:25;;;;;;;13.02;8.05;;;;;;;20.58;65.26;94966.72;2974013;39;20067;-71
2021/06/17 06:55:46;;;;;;;11.77;8.85;;;;;;;20.76;64.82;94966.81;2975281;40;20228;-84
2021/06/17 06:57:48;;;;;;;15.20;10.70;;;;;;;20.96;64.62;94979.16;2975150;39;20341;-82
2021/06/17 06:59:50;;;;;;;13.00;8.38;;;;;;;20.99;64.07;94968.91;2971309;39;20044;-83
2021/06/17 07:01:53;;;;;;;11.43;6.60;;;;;;;21.10;63.52;94970.06;2974973;39;20505;-81
2021/06/17 07:03:55;;;;;;;13.40;6.38;;;;;;;21.26;62.93;94961.50;2970439;40;20076;-83
2021/06/17 07:05:57;;;;;;;11.50;6.10;;;;;;;21.23;60.99;94966.44;2973808;39;20518;-83
2021/06/17 07:08:04;;;;;;;;;;;;;;;21.09;60.20;94965.75;2977399;39;20424;-84
2021/06/17 07:10:07;;;;;;;11.38;4.47;;;;;;;21.17;59.36;94970.81;2976773;39;19964;-85
2021/06/17 07:12:10;;;;;;;6.97;4.45;;;;;;;21.21;59.90;94971.19;2975378;39;20417;-83
2021/06/17 07:14:14;;;;;;;7.53;5.43;;;;;;;20.97;61.01;94970.97;2976386;39;20044;-82
2021/06/17 07:16:16;;;;;;;6.95;5.07;;;;;;;20.93;60.38;94967.13;2975407;40;20173;-72
2021/06/17 07:18:18;;;;;;;7.03;4.95;;;;;;;21.15;60.97;94972.06;2974123;39;20159;-72
2021/06/17 07:20:20;;;;;;;8.48;5.32;;;;;;;21.17;60.80;94976.13;2975291;39;20109;-72
2021/06/17 07:22:25;;;;;;;8.50;5.50;;;;;;;21.21;60.56;94974.66;2975411;39;20132;-70
2021/06/17 07:24:27;;;;;;;6.80;4.88;;;;;;;21.05;60.70;94978.66;2974469;39;20140;-70
2021/06/17 07:26:29;;;;;;;6.85;4.60;;;;;;;21.15;60.45;94972.06;2965295;39;20441;-71
2021/06/17 07:28:31;;;;;;;6.32;4.18;;;;;;;21.30;59.94;94985.06;2966964;40;20349;-72
2021/06/17 07:30:32;;;;;;;6.00;3.97;;;;;;;21.34;59.67;94984.38;2970269;39;20376;-72
2021/06/17 07:32:34;;;;;;;5.75;3.40;;;;;;;21.32;58.45;94977.66;2975247;39;20139;-73
2021/06/17 07:34:36;;;;;;;8.60;4.00;;;;;;;21.16;59.28;94984.34;2974703;39;20109;-72
2021/06/17 07:36:39;;;;;;;5.35;3.70;;;;;;;21.06;58.38;94979.50;2969178;39;20229;-82
2021/06/17 07:38:41;;;;;;;6.22;3.70;;;;;;;20.95;58.80;94975.69;2970157;39;20056;-83
2021/06/17 07:40:43;;;;;;;5.97;3.72;;;;;;;21.23;58.57;94974.41;2979356;39;20366;-83
2021/06/17 07:42:45;;;;;;;8.55;5.90;;;;;;;21.51;57.90;94981.16;2972378;39;20056;-83
2021/06/17 07:44:47;;;;;;;6.28;4.10;;;;;;;21.59;58.22;94968.38;2975410;40;20055;-82
2021/06/17 07:46:49;;;;;;;7.27;3.90;;;;;;;21.63;58.49;94971.41;2968075;39;20052;-80
2021/06/17 07:48:51;;;;;;;5.20;4.13;;;;;;;21.76;57.48;94965.13;2967730;39;20059;-81
2021/06/17 07:50:53;;;;;;;10.55;4.97;;;;;;;21.71;56.88;94965.00;2971890;40;20083;-84
2021/06/17 07:52:55;;;;;;;8.60;3.55;;;;;;;21.78;56.22;94957.72;2966144;40;20088;-81
2021/06/17 07:54:57;;;;;;;6.22;3.80;;;;;;;21.85;56.67;94961.13;2976566;39;20096;-83
2021/06/17 07:57:00;;;;;;;7.32;4.00;;;;;;;21.93;56.30;94958.16;2966685;39;20052;-71
2021/06/17 07:59:02;;;;;;;5.40;3.13;;;;;;;22.01;55.71;94952.53;2969300;40;20052;-72
2021/06/17 08:01:05;;;;;;;12.00;5.70;;;;;;;22.20;56.10;94957.81;2974465;39;20870;-83
2021/06/17 08:03:08;;;;;;;6.13;3.72;;;;;;;22.20;55.54;94958.66;2977019;39;20067;-83
2021/06/17 08:05:10;;;;;;;12.02;4.13;;;;;;;22.08;55.65;94966.59;2970810;39;20056;-81
2021/06/17 08:07:12;;;;;;;4.20;3.07;;;;;;;22.43;56.38;94963.28;2970003;39;20072;-81
2021/06/17 08:09:18;;;;;;;4.88;3.20;;;;;;;22.59;54.57;94955.72;2976111;39;20096;-82
2021/06/17 08:11:20;;;;;;;5.40;3.50;;;;;;;22.46;54.60;94960.19;2977187;39;20056;-82
2021/06/17 08:13:36;;;;;;;4.75;2.97;;;;;;;22.51;54.47;94954.16;2977790;40;20040;-83
2021/06/17 08:15:38;;;;;;;4.28;2.83;;;;;;;22.66;54.60;94956.41;2976651;39;20056;-82
2021/06/17 08:17:40;;;;;;;4.60;3.08;;;;;;;22.97;54.67;94962.50;2977229;39;20136;-83
2021/06/17 08:19:42;;;;;;;3.55;2.88;;;;;;;23.01;52.31;94955.69;2976599;40;20056;-82
2021/06/17 08:21:44;;;;;;;3.65;2.30;;;;;;;23.21;49.62;94960.72;2977685;40;20079;-73
2021/06/17 08:23:46;;;;;;;5.60;2.22;;;;;;;23.42;50.80;94948.63;2976594;39;20120;-82
2021/06/17 08:25:48;;;;;;;5.70;2.72;;;;;;;23.57;51.25;94954.31;2971636;39;20069;-82
2021/06/17 08:27:50;;;;;;;4.13;2.40;;;;;;;23.55;50.08;94950.25;2983646;39;20043;-83
2021/06/17 08:29:52;;;;;;;4.63;2.60;;;;;;;23.60;50.68;94947.72;2972663;39;20063;-75
2021/06/17 08:31:54;;;;;;;3.15;2.47;;;;;;;23.64;49.66;94954.19;2968014;39;20060;-73
2021/06/17 08:33:56;;;;;;;5.35;2.53;;;;;;;23.41;51.64;94947.84;2972046;39;20364;-73
2021/06/17 08:35:59;;;;;;;3.75;2.50;;;;;;;23.20;51.87;94946.53;2970106;39;20428;-72
2021/06/17 08:38:02;;;;;;;5.10;3.00;;;;;;;23.42;52.15;94944.09;2975812;39;20147;-83
2021/06/17 08:40:04;;;;;;;3.17;2.38;;;;;;;23.48;50.78;94942.34;2969708;39;20177;-85
2021/06/17 08:42:06;;;;;;;6.70;3.47;;;;;;;23.67;51.58;94937.69;2973252;39;20055;-83
2021/06/17 08:44:08;;;;;;;5.03;2.88;;;;;;;23.48;49.10;94945.84;2967854;39;20168;-82
2021/06/17 08:46:10;;;;;;;5.53;2.40;;;;;;;23.38;48.73;94942.97;2973277;39;20147;-84
2021/06/17 08:48:12;;;;;;;4.28;2.05;;;;;;;22.92;48.03;94949.03;2971041;39;20056;-84
2021/06/17 08:50:15;;;;;;;4.05;2.22;;;;;;;23.14;46.83;94939.44;2968032;40;20059;-84
2021/06/17 08:52:19;;;;;;;5.33;3.17;;;;;;;23.30;47.23;94938.75;2973979;40;20064;-84
2021/06/17 08:54:21;;;;;;;3.42;2.40;;;;;;;23.35;48.86;94939.94;2977073;39;20282;-85
2021/06/17 08:56:24;;;;;;;4.40;3.00;;;;;;;23.38;49.19;94937.63;2975949;40;20084;-82
2021/06/17 08:58:26;;;;;;;5.28;2.45;;;;;;;23.77;48.86;94931.75;2976157;39;20416;-72
2021/06/17 09:00:30;;;;;;;4.93;2.00;;;;;;;24.02;47.70;94934.97;2973328;40;20439;-74
2021/06/17 09:02:32;;;;;;;5.07;2.97;;;;;;;24.16;47.28;94927.50;2975834;40;20056;-72
2021/06/17 09:04:35;;;;;;;9.90;5.13;;;;;;;24.06;48.69;94933.44;2975441;39;20055;-72
2021/06/17 09:06:37;;;;;;;3.15;2.55;;;;;;;24.15;46.01;94931.19;2974282;39;20428;-72
2021/06/17 09:08:39;;;;;;;14.65;7.28;;;;;;;24.06;44.70;94932.63;2975360;39;20423;-72
2021/06/17 09:10:42;;;;;;;3.35;1.80;;;;;;;24.24;44.16;94928.94;2974805;40;20401;-71
2021/06/17 09:12:49;;;;;;;4.07;2.30;;;;;;;24.23;42.87;94925.47;2967328;39;20052;-72
2021/06/17 09:14:52;;;;;;;3.70;2.10;;;;;;;24.15;42.58;94923.16;2975617;39;20777;-70
2021/06/17 09:16:59;;;;;;;4.07;1.90;;;;;;;24.23;43.07;94919.31;2973221;39;20139;-73
2021/06/17 09:19:01;;;;;;;4.93;2.47;;;;;;;24.44;42.61;94918.63;2973067;39;20105;-72
2021/06/17 09:21:09;;;;;;;2.88;1.90;;;;;;;24.22;42.26;94918.50;2974142;39;20132;-72
2021/06/17 09:23:29;;;;;;;4.30;1.90;;;;;;;24.11;43.48;94920.19;2974871;39;20567;-71
2021/06/17 09:25:30;;;;;;;3.10;1.77;;;;;;;24.40;42.63;94914.81;2975621;39;20210;-71
2021/06/17 09:27:35;;;;;;;4.22;1.75;;;;;;;24.40;42.24;94904.09;2965294;40;20072;-70
2021/06/17 09:29:38;;;;;;;4.75;2.00;;;;;;;24.51;42.06;94913.16;2964735;40;20128;-73
2021/06/17 09:31:42;;;;;;;3.28;1.83;;;;;;;24.60;41.92;94905.53;2968608;39;20054;-71
2021/06/17 09:33:45;;;;;;;5.95;2.88;;;;;;;24.32;41.33;94909.84;2979437;39;20052;-72
2021/06/17 09:35:51;;;;;;;;;;;;;;;24.57;41.99;94909.53;2976454;39;20148;-71
2021/06/17 09:38:05;;;;;;;3.58;1.90;;;;;;;24.52;41.34;94910.25;2969364;39;19956;-74
2021/06/17 09:40:31;;;;;;;3.72;2.25;;;;;;;24.59;42.54;94901.25;2970355;39;20056;-72
2021/06/17 09:42:33;;;;;;;4.30;2.38;;;;;;;24.63;42.24;94903.19;2974715;39;20525;-72
2021/06/17 09:44:37;;;;;;;3.47;1.90;;;;;;;24.94;41.67;94898.34;2975568;39;20159;-71
2021/06/17 09:46:39;;;;;;;3.35;1.67;;;;;;;25.16;40.85;94898.41;2973555;39;20044;-74